sensor_id;sensor_type;location;lat;lon;timestamp;P1;durP1;ratioP1;P2;durP2;ratioP2
57191;SDS011;43052;52.588;13.396;2023-09-07T00:00:11;10.88;;;9.88;;
57191;SDS011;43052;52.588;13.396;2023-09-07T00:02:36;10.73;;;9.55;;
57191;SDS011;43052;52.588;13.396;2023-09-07T00:05:02;10.85;;;9.85;;
57191;SDS011;43052;52.588;13.396;2023-09-07T00:07:27;10.98;;;9.85;;
57191;SDS011;43052;52.588;13.396;2023-09-07T00:09:52;10.82;;;9.73;;
57191;SDS011;43052;52.588;13.396;2023-09-07T00:12:17;11.27;;;10.00;;
57191;SDS011;43052;52.588;13.396;2023-09-07T00:14:43;11.05;;;9.68;;
57191;SDS011;43052;52.588;13.396;2023-09-07T00:17:08;11.50;;;10.38;;
57191;SDS011;43052;52.588;13.396;2023-09-07T00:19:33;10.07;;;9.15;;
57191;SDS011;43052;52.588;13.396;2023-09-07T00:22:01;11.13;;;9.95;;
57191;SDS011;43052;52.588;13.396;2023-09-07T00:24:27;10.68;;;9.57;;
57191;SDS011;43052;52.588;13.396;2023-09-07T00:26:55;11.43;;;10.23;;
57191;SDS011;43052;52.588;13.396;2023-09-07T00:29:21;10.77;;;9.77;;
57191;SDS011;43052;52.588;13.396;2023-09-07T00:31:47;11.02;;;9.93;;
57191;SDS011;43052;52.588;13.396;2023-09-07T00:34:12;10.70;;;9.48;;
57191;SDS011;43052;52.588;13.396;2023-09-07T00:36:37;11.10;;;10.00;;
57191;SDS011;43052;52.588;13.396;2023-09-07T00:39:03;13.20;;;10.30;;
57191;SDS011;43052;52.588;13.396;2023-09-07T00:41:28;12.20;;;10.38;;
57191;SDS011;43052;52.588;13.396;2023-09-07T00:43:53;12.00;;;10.75;;
57191;SDS011;43052;52.588;13.396;2023-09-07T00:46:19;12.18;;;10.98;;
57191;SDS011;43052;52.588;13.396;2023-09-07T00:48:45;11.68;;;10.55;;
57191;SDS011;43052;52.588;13.396;2023-09-07T00:51:11;11.88;;;10.77;;
57191;SDS011;43052;52.588;13.396;2023-09-07T00:53:36;11.35;;;10.25;;
57191;SDS011;43052;52.588;13.396;2023-09-07T00:56:02;12.05;;;10.85;;
57191;SDS011;43052;52.588;13.396;2023-09-07T00:58:28;11.00;;;9.90;;
57191;SDS011;43052;52.588;13.396;2023-09-07T01:00:54;10.85;;;9.80;;
57191;SDS011;43052;52.588;13.396;2023-09-07T01:03:20;11.43;;;10.27;;
57191;SDS011;43052;52.588;13.396;2023-09-07T01:05:47;11.48;;;10.32;;
57191;SDS011;43052;52.588;13.396;2023-09-07T01:08:23;11.73;;;10.60;;
57191;SDS011;43052;52.588;13.396;2023-09-07T01:10:51;11.38;;;10.27;;
57191;SDS011;43052;52.588;13.396;2023-09-07T01:13:18;11.10;;;9.95;;
57191;SDS011;43052;52.588;13.396;2023-09-07T01:15:43;11.15;;;10.07;;
57191;SDS011;43052;52.588;13.396;2023-09-07T01:18:09;11.32;;;10.07;;
57191;SDS011;43052;52.588;13.396;2023-09-07T01:20:35;11.07;;;10.05;;
57191;SDS011;43052;52.588;13.396;2023-09-07T01:23:05;10.93;;;9.93;;
57191;SDS011;43052;52.588;13.396;2023-09-07T01:25:42;11.27;;;10.10;;
57191;SDS011;43052;52.588;13.396;2023-09-07T01:28:08;11.18;;;10.18;;
57191;SDS011;43052;52.588;13.396;2023-09-07T01:30:34;11.70;;;10.50;;
57191;SDS011;43052;52.588;13.396;2023-09-07T01:33:00;11.20;;;10.10;;
57191;SDS011;43052;52.588;13.396;2023-09-07T01:35:25;11.93;;;10.73;;
57191;SDS011;43052;52.588;13.396;2023-09-07T01:37:51;12.18;;;10.90;;
57191;SDS011;43052;52.588;13.396;2023-09-07T01:40:18;13.05;;;11.80;;
57191;SDS011;43052;52.588;13.396;2023-09-07T01:42:43;12.38;;;11.18;;
57191;SDS011;43052;52.588;13.396;2023-09-07T01:45:08;14.15;;;12.25;;
57191;SDS011;43052;52.588;13.396;2023-09-07T01:47:34;12.70;;;11.27;;
57191;SDS011;43052;52.588;13.396;2023-09-07T01:49:59;12.52;;;11.30;;
57191;SDS011;43052;52.588;13.396;2023-09-07T01:52:24;13.25;;;11.15;;
57191;SDS011;43052;52.588;13.396;2023-09-07T01:54:49;12.02;;;10.75;;
57191;SDS011;43052;52.588;13.396;2023-09-07T01:57:15;12.75;;;11.57;;
57191;SDS011;43052;52.588;13.396;2023-09-07T01:59:40;13.57;;;12.25;;
57191;SDS011;43052;52.588;13.396;2023-09-07T02:02:06;12.40;;;11.20;;
57191;SDS011;43052;52.588;13.396;2023-09-07T02:04:31;12.90;;;11.60;;
57191;SDS011;43052;52.588;13.396;2023-09-07T02:06:56;12.43;;;11.13;;
57191;SDS011;43052;52.588;13.396;2023-09-07T02:09:21;12.70;;;11.40;;
57191;SDS011;43052;52.588;13.396;2023-09-07T02:11:47;13.30;;;12.00;;
57191;SDS011;43052;52.588;13.396;2023-09-07T02:14:12;14.45;;;13.05;;
57191;SDS011;43052;52.588;13.396;2023-09-07T02:16:37;13.20;;;11.90;;
57191;SDS011;43052;52.588;13.396;2023-09-07T02:19:03;12.48;;;11.30;;
57191;SDS011;43052;52.588;13.396;2023-09-07T02:21:29;12.73;;;11.52;;
57191;SDS011;43052;52.588;13.396;2023-09-07T02:23:55;13.57;;;12.23;;
57191;SDS011;43052;52.588;13.396;2023-09-07T02:26:20;13.88;;;12.45;;
57191;SDS011;43052;52.588;13.396;2023-09-07T02:28:45;13.48;;;12.27;;
57191;SDS011;43052;52.588;13.396;2023-09-07T02:31:10;13.85;;;12.45;;
57191;SDS011;43052;52.588;13.396;2023-09-07T02:33:36;12.75;;;11.52;;
57191;SDS011;43052;52.588;13.396;2023-09-07T02:36:01;13.65;;;12.35;;
57191;SDS011;43052;52.588;13.396;2023-09-07T02:38:27;14.43;;;13.02;;
57191;SDS011;43052;52.588;13.396;2023-09-07T02:40:52;13.35;;;12.13;;
57191;SDS011;43052;52.588;13.396;2023-09-07T02:43:19;14.45;;;12.95;;
57191;SDS011;43052;52.588;13.396;2023-09-07T02:45:44;14.48;;;13.07;;
57191;SDS011;43052;52.588;13.396;2023-09-07T02:48:10;15.50;;;13.88;;
57191;SDS011;43052;52.588;13.396;2023-09-07T02:50:35;14.60;;;13.02;;
57191;SDS011;43052;52.588;13.396;2023-09-07T02:53:00;15.93;;;14.32;;
57191;SDS011;43052;52.588;13.396;2023-09-07T02:55:27;14.50;;;13.10;;
57191;SDS011;43052;52.588;13.396;2023-09-07T03:05:30;14.80;;;13.38;;
57191;SDS011;43052;52.588;13.396;2023-09-07T03:07:55;15.50;;;14.00;;
57191;SDS011;43052;52.588;13.396;2023-09-07T03:10:21;14.50;;;13.10;;
57191;SDS011;43052;52.588;13.396;2023-09-07T03:12:46;14.07;;;12.77;;
57191;SDS011;43052;52.588;13.396;2023-09-07T03:15:11;14.05;;;12.73;;
57191;SDS011;43052;52.588;13.396;2023-09-07T03:17:37;13.80;;;12.40;;
57191;SDS011;43052;52.588;13.396;2023-09-07T03:20:02;14.25;;;12.60;;
57191;SDS011;43052;52.588;13.396;2023-09-07T03:22:38;14.15;;;12.68;;
57191;SDS011;43052;52.588;13.396;2023-09-07T03:25:05;14.52;;;13.02;;
57191;SDS011;43052;52.588;13.396;2023-09-07T03:27:30;14.00;;;12.60;;
57191;SDS011;43052;52.588;13.396;2023-09-07T03:29:55;13.35;;;12.05;;
57191;SDS011;43052;52.588;13.396;2023-09-07T03:32:21;14.50;;;13.00;;
57191;SDS011;43052;52.588;13.396;2023-09-07T03:34:46;14.32;;;13.02;;
57191;SDS011;43052;52.588;13.396;2023-09-07T03:37:11;14.23;;;12.60;;
57191;SDS011;43052;52.588;13.396;2023-09-07T03:39:36;13.63;;;12.38;;
57191;SDS011;43052;52.588;13.396;2023-09-07T03:42:02;15.88;;;14.32;;
57191;SDS011;43052;52.588;13.396;2023-09-07T03:44:27;14.02;;;12.63;;
57191;SDS011;43052;52.588;13.396;2023-09-07T03:46:52;16.00;;;14.30;;
57191;SDS011;43052;52.588;13.396;2023-09-07T03:49:17;16.58;;;14.60;;
57191;SDS011;43052;52.588;13.396;2023-09-07T03:51:43;15.50;;;13.85;;
57191;SDS011;43052;52.588;13.396;2023-09-07T03:54:08;15.93;;;14.32;;
57191;SDS011;43052;52.588;13.396;2023-09-07T03:56:33;14.75;;;13.18;;
57191;SDS011;43052;52.588;13.396;2023-09-07T03:58:59;19.63;;;15.52;;
57191;SDS011;43052;52.588;13.396;2023-09-07T04:01:24;19.00;;;16.85;;
57191;SDS011;43052;52.588;13.396;2023-09-07T04:03:50;18.17;;;16.48;;
57191;SDS011;43052;52.588;13.396;2023-09-07T04:06:15;16.45;;;14.90;;
57191;SDS011;43052;52.588;13.396;2023-09-07T04:08:40;16.48;;;14.77;;
57191;SDS011;43052;52.588;13.396;2023-09-07T04:11:06;15.98;;;14.43;;
57191;SDS011;43052;52.588;13.396;2023-09-07T04:13:31;15.18;;;13.25;;
57191;SDS011;43052;52.588;13.396;2023-09-07T04:15:58;15.57;;;14.07;;
57191;SDS011;43052;52.588;13.396;2023-09-07T04:18:24;16.10;;;14.35;;
57191;SDS011;43052;52.588;13.396;2023-09-07T04:20:49;15.50;;;14.10;;
57191;SDS011;43052;52.588;13.396;2023-09-07T04:23:14;15.55;;;14.05;;
57191;SDS011;43052;52.588;13.396;2023-09-07T04:25:40;16.48;;;14.77;;
57191;SDS011;43052;52.588;13.396;2023-09-07T04:28:05;15.27;;;13.77;;
57191;SDS011;43052;52.588;13.396;2023-09-07T04:30:31;15.57;;;14.05;;
57191;SDS011;43052;52.588;13.396;2023-09-07T04:32:57;15.50;;;14.13;;
57191;SDS011;43052;52.588;13.396;2023-09-07T04:35:27;15.75;;;14.15;;
57191;SDS011;43052;52.588;13.396;2023-09-07T04:37:54;17.38;;;14.27;;
57191;SDS011;43052;52.588;13.396;2023-09-07T04:40:19;18.65;;;14.05;;
57191;SDS011;43052;52.588;13.396;2023-09-07T04:42:44;15.65;;;14.15;;
57191;SDS011;43052;52.588;13.396;2023-09-07T04:45:10;15.57;;;14.07;;
57191;SDS011;43052;52.588;13.396;2023-09-07T04:47:35;15.00;;;13.45;;
57191;SDS011;43052;52.588;13.396;2023-09-07T04:50:02;15.75;;;14.13;;
57191;SDS011;43052;52.588;13.396;2023-09-07T04:52:29;16.20;;;14.45;;
57191;SDS011;43052;52.588;13.396;2023-09-07T04:54:54;17.25;;;14.88;;
57191;SDS011;43052;52.588;13.396;2023-09-07T04:57:21;15.73;;;13.48;;
57191;SDS011;43052;52.588;13.396;2023-09-07T04:59:46;15.98;;;13.90;;
57191;SDS011;43052;52.588;13.396;2023-09-07T05:02:11;14.90;;;13.40;;
57191;SDS011;43052;52.588;13.396;2023-09-07T05:04:37;15.45;;;13.48;;
57191;SDS011;43052;52.588;13.396;2023-09-07T05:07:02;14.98;;;13.48;;
57191;SDS011;43052;52.588;13.396;2023-09-07T05:09:28;16.17;;;13.73;;
57191;SDS011;43052;52.588;13.396;2023-09-07T05:11:54;14.80;;;13.30;;
57191;SDS011;43052;52.588;13.396;2023-09-07T05:14:20;14.80;;;13.20;;
57191;SDS011;43052;52.588;13.396;2023-09-07T05:16:45;14.30;;;12.77;;
57191;SDS011;43052;52.588;13.396;2023-09-07T05:19:10;17.40;;;14.30;;
57191;SDS011;43052;52.588;13.396;2023-09-07T05:21:36;18.67;;;13.23;;
57191;SDS011;43052;52.588;13.396;2023-09-07T05:24:01;18.02;;;13.27;;
57191;SDS011;43052;52.588;13.396;2023-09-07T05:26:33;18.23;;;13.75;;
57191;SDS011;43052;52.588;13.396;2023-09-07T05:28:58;15.20;;;13.10;;
57191;SDS011;43052;52.588;13.396;2023-09-07T05:31:23;15.90;;;12.68;;
57191;SDS011;43052;52.588;13.396;2023-09-07T05:33:48;15.95;;;12.90;;
57191;SDS011;43052;52.588;13.396;2023-09-07T05:36:14;15.18;;;12.85;;
57191;SDS011;43052;52.588;13.396;2023-09-07T05:38:39;16.42;;;12.60;;
57191;SDS011;43052;52.588;13.396;2023-09-07T05:41:04;15.43;;;12.55;;
57191;SDS011;43052;52.588;13.396;2023-09-07T05:43:29;14.43;;;12.07;;
57191;SDS011;43052;52.588;13.396;2023-09-07T05:45:55;15.00;;;11.52;;
57191;SDS011;43052;52.588;13.396;2023-09-07T05:48:20;14.98;;;12.20;;
57191;SDS011;43052;52.588;13.396;2023-09-07T05:50:45;15.00;;;12.30;;
57191;SDS011;43052;52.588;13.396;2023-09-07T05:53:11;16.58;;;13.13;;
57191;SDS011;43052;52.588;13.396;2023-09-07T05:55:36;19.10;;;12.23;;
57191;SDS011;43052;52.588;13.396;2023-09-07T05:58:05;15.02;;;11.27;;
57191;SDS011;43052;52.588;13.396;2023-09-07T06:00:31;12.98;;;11.00;;
57191;SDS011;43052;52.588;13.396;2023-09-07T06:02:56;13.20;;;10.73;;
57191;SDS011;43052;52.588;13.396;2023-09-07T06:05:22;11.75;;;10.57;;
57191;SDS011;43052;52.588;13.396;2023-09-07T06:07:47;13.55;;;11.50;;
57191;SDS011;43052;52.588;13.396;2023-09-07T06:10:13;14.20;;;10.32;;
57191;SDS011;43052;52.588;13.396;2023-09-07T06:12:38;13.68;;;10.35;;
57191;SDS011;43052;52.588;13.396;2023-09-07T06:15:04;14.20;;;9.38;;
57191;SDS011;43052;52.588;13.396;2023-09-07T06:17:29;13.45;;;9.00;;
57191;SDS011;43052;52.588;13.396;2023-09-07T06:19:55;12.32;;;8.48;;
57191;SDS011;43052;52.588;13.396;2023-09-07T06:22:20;11.35;;;8.10;;
57191;SDS011;43052;52.588;13.396;2023-09-07T06:24:46;11.65;;;8.40;;
57191;SDS011;43052;52.588;13.396;2023-09-07T06:27:11;11.82;;;7.63;;
57191;SDS011;43052;52.588;13.396;2023-09-07T06:29:36;9.98;;;7.70;;
57191;SDS011;43052;52.588;13.396;2023-09-07T06:32:01;11.07;;;7.50;;
57191;SDS011;43052;52.588;13.396;2023-09-07T06:34:27;10.90;;;7.63;;
57191;SDS011;43052;52.588;13.396;2023-09-07T06:36:52;9.47;;;7.97;;
57191;SDS011;43052;52.588;13.396;2023-09-07T06:39:17;11.73;;;7.43;;
57191;SDS011;43052;52.588;13.396;2023-09-07T06:41:45;8.43;;;6.82;;
57191;SDS011;43052;52.588;13.396;2023-09-07T06:44:10;11.27;;;7.05;;
57191;SDS011;43052;52.588;13.396;2023-09-07T06:46:36;8.02;;;6.57;;
57191;SDS011;43052;52.588;13.396;2023-09-07T06:49:01;9.53;;;6.47;;
57191;SDS011;43052;52.588;13.396;2023-09-07T06:51:28;9.20;;;6.57;;
57191;SDS011;43052;52.588;13.396;2023-09-07T06:53:53;11.67;;;6.53;;
57191;SDS011;43052;52.588;13.396;2023-09-07T06:56:18;9.93;;;6.13;;
57191;SDS011;43052;52.588;13.396;2023-09-07T06:58:43;14.40;;;6.53;;
57191;SDS011;43052;52.588;13.396;2023-09-07T07:01:09;7.60;;;6.07;;
57191;SDS011;43052;52.588;13.396;2023-09-07T07:03:34;9.75;;;6.20;;
57191;SDS011;43052;52.588;13.396;2023-09-07T07:05:59;10.35;;;7.20;;
57191;SDS011;43052;52.588;13.396;2023-09-07T07:08:26;8.40;;;6.40;;
57191;SDS011;43052;52.588;13.396;2023-09-07T07:10:51;10.07;;;6.10;;
57191;SDS011;43052;52.588;13.396;2023-09-07T07:13:17;8.93;;;5.97;;
57191;SDS011;43052;52.588;13.396;2023-09-07T07:15:43;9.00;;;6.17;;
57191;SDS011;43052;52.588;13.396;2023-09-07T07:18:08;9.27;;;6.10;;
57191;SDS011;43052;52.588;13.396;2023-09-07T07:20:40;7.30;;;5.82;;
57191;SDS011;43052;52.588;13.396;2023-09-07T07:23:06;10.35;;;6.07;;
57191;SDS011;43052;52.588;13.396;2023-09-07T07:25:32;9.00;;;6.65;;
57191;SDS011;43052;52.588;13.396;2023-09-07T07:28:01;11.18;;;6.30;;
57191;SDS011;43052;52.588;13.396;2023-09-07T07:30:30;6.97;;;6.03;;
57191;SDS011;43052;52.588;13.396;2023-09-07T07:32:56;10.18;;;6.60;;
57191;SDS011;43052;52.588;13.396;2023-09-07T07:35:21;8.77;;;6.00;;
57191;SDS011;43052;52.588;13.396;2023-09-07T07:37:48;9.35;;;5.80;;
57191;SDS011;43052;52.588;13.396;2023-09-07T07:40:14;6.88;;;5.60;;
57191;SDS011;43052;52.588;13.396;2023-09-07T07:42:40;7.95;;;6.15;;
57191;SDS011;43052;52.588;13.396;2023-09-07T07:45:05;10.63;;;5.97;;
57191;SDS011;43052;52.588;13.396;2023-09-07T07:47:31;8.50;;;5.60;;
57191;SDS011;43052;52.588;13.396;2023-09-07T07:49:56;7.07;;;6.10;;
57191;SDS011;43052;52.588;13.396;2023-09-07T07:52:21;7.93;;;6.03;;
57191;SDS011;43052;52.588;13.396;2023-09-07T07:54:47;9.75;;;6.57;;
57191;SDS011;43052;52.588;13.396;2023-09-07T07:57:12;9.65;;;5.82;;
57191;SDS011;43052;52.588;13.396;2023-09-07T07:59:37;10.03;;;6.43;;
57191;SDS011;43052;52.588;13.396;2023-09-07T08:02:02;6.43;;;5.63;;
57191;SDS011;43052;52.588;13.396;2023-09-07T08:04:28;6.50;;;5.53;;
57191;SDS011;43052;52.588;13.396;2023-09-07T08:07:00;9.70;;;5.65;;
57191;SDS011;43052;52.588;13.396;2023-09-07T08:10:23;8.60;;;5.68;;
57191;SDS011;43052;52.588;13.396;2023-09-07T08:12:51;7.55;;;5.78;;
57191;SDS011;43052;52.588;13.396;2023-09-07T08:15:18;7.25;;;5.47;;
57191;SDS011;43052;52.588;13.396;2023-09-07T08:17:46;6.80;;;5.30;;
57191;SDS011;43052;52.588;13.396;2023-09-07T08:20:12;8.35;;;5.22;;
57191;SDS011;43052;52.588;13.396;2023-09-07T08:22:39;7.22;;;5.15;;
57191;SDS011;43052;52.588;13.396;2023-09-07T08:25:07;6.60;;;5.03;;
57191;SDS011;43052;52.588;13.396;2023-09-07T08:27:32;8.32;;;5.93;;
57191;SDS011;43052;52.588;13.396;2023-09-07T08:29:58;7.47;;;5.50;;
57191;SDS011;43052;52.588;13.396;2023-09-07T08:32:24;7.38;;;5.30;;
57191;SDS011;43052;52.588;13.396;2023-09-07T08:34:49;5.97;;;5.20;;
57191;SDS011;43052;52.588;13.396;2023-09-07T08:37:15;7.60;;;5.35;;
57191;SDS011;43052;52.588;13.396;2023-09-07T08:39:43;7.80;;;5.38;;
57191;SDS011;43052;52.588;13.396;2023-09-07T08:42:09;10.52;;;5.18;;
57191;SDS011;43052;52.588;13.396;2023-09-07T08:44:34;6.78;;;4.93;;
57191;SDS011;43052;52.588;13.396;2023-09-07T08:47:02;7.43;;;5.03;;
57191;SDS011;43052;52.588;13.396;2023-09-07T08:49:29;11.25;;;6.18;;
57191;SDS011;43052;52.588;13.396;2023-09-07T08:51:57;6.97;;;4.85;;
57191;SDS011;43052;52.588;13.396;2023-09-07T08:54:24;6.13;;;4.97;;
57191;SDS011;43052;52.588;13.396;2023-09-07T08:56:51;6.97;;;5.13;;
57191;SDS011;43052;52.588;13.396;2023-09-07T08:59:16;5.28;;;4.68;;
57191;SDS011;43052;52.588;13.396;2023-09-07T09:01:41;5.47;;;4.93;;
57191;SDS011;43052;52.588;13.396;2023-09-07T09:04:07;6.00;;;4.85;;
57191;SDS011;43052;52.588;13.396;2023-09-07T09:06:32;6.05;;;5.00;;
57191;SDS011;43052;52.588;13.396;2023-09-07T09:08:58;8.07;;;5.45;;
57191;SDS011;43052;52.588;13.396;2023-09-07T09:11:24;6.18;;;4.82;;
57191;SDS011;43052;52.588;13.396;2023-09-07T09:13:52;5.05;;;3.75;;
57191;SDS011;43052;52.588;13.396;2023-09-07T09:16:19;5.50;;;4.60;;
57191;SDS011;43052;52.588;13.396;2023-09-07T09:18:55;5.82;;;4.70;;
57191;SDS011;43052;52.588;13.396;2023-09-07T09:21:22;7.65;;;4.63;;
57191;SDS011;43052;52.588;13.396;2023-09-07T09:23:49;6.93;;;5.03;;
57191;SDS011;43052;52.588;13.396;2023-09-07T09:26:15;7.68;;;4.93;;
57191;SDS011;43052;52.588;13.396;2023-09-07T09:28:41;6.03;;;4.60;;
57191;SDS011;43052;52.588;13.396;2023-09-07T09:31:07;7.63;;;5.32;;
57191;SDS011;43052;52.588;13.396;2023-09-07T09:33:37;5.95;;;4.85;;
57191;SDS011;43052;52.588;13.396;2023-09-07T09:36:03;7.60;;;5.43;;
57191;SDS011;43052;52.588;13.396;2023-09-07T09:38:29;5.97;;;5.10;;
57191;SDS011;43052;52.588;13.396;2023-09-07T09:41:00;9.50;;;5.40;;
57191;SDS011;43052;52.588;13.396;2023-09-07T09:43:25;6.45;;;5.40;;
57191;SDS011;43052;52.588;13.396;2023-09-07T09:45:51;5.95;;;5.00;;
57191;SDS011;43052;52.588;13.396;2023-09-07T09:48:21;4.93;;;4.10;;
57191;SDS011;43052;52.588;13.396;2023-09-07T09:50:47;7.38;;;5.47;;
57191;SDS011;43052;52.588;13.396;2023-09-07T09:53:17;5.95;;;4.63;;
57191;SDS011;43052;52.588;13.396;2023-09-07T09:55:45;6.30;;;5.47;;
57191;SDS011;43052;52.588;13.396;2023-09-07T09:58:12;7.47;;;5.20;;
57191;SDS011;43052;52.588;13.396;2023-09-07T10:00:38;7.55;;;5.43;;
57191;SDS011;43052;52.588;13.396;2023-09-07T10:03:09;7.30;;;5.15;;
57191;SDS011;43052;52.588;13.396;2023-09-07T10:05:37;9.07;;;5.40;;
57191;SDS011;43052;52.588;13.396;2023-09-07T10:08:07;6.95;;;4.60;;
57191;SDS011;43052;52.588;13.396;2023-09-07T10:10:35;6.05;;;4.80;;
57191;SDS011;43052;52.588;13.396;2023-09-07T10:13:01;5.50;;;4.43;;
57191;SDS011;43052;52.588;13.396;2023-09-07T10:15:27;7.07;;;5.18;;
57191;SDS011;43052;52.588;13.396;2023-09-07T10:18:05;7.45;;;4.90;;
57191;SDS011;43052;52.588;13.396;2023-09-07T10:21:14;6.35;;;5.13;;
57191;SDS011;43052;52.588;13.396;2023-09-07T10:23:23;5.93;;;5.32;;
57191;SDS011;43052;52.588;13.396;2023-09-07T10:26:00;10.02;;;5.63;;
57191;SDS011;43052;52.588;13.396;2023-09-07T10:28:28;6.57;;;4.90;;
57191;SDS011;43052;52.588;13.396;2023-09-07T10:31:04;6.13;;;4.50;;
57191;SDS011;43052;52.588;13.396;2023-09-07T10:33:38;9.20;;;5.43;;
57191;SDS011;43052;52.588;13.396;2023-09-07T10:36:03;7.65;;;4.78;;
57191;SDS011;43052;52.588;13.396;2023-09-07T10:38:33;8.00;;;4.75;;
57191;SDS011;43052;52.588;13.396;2023-09-07T10:41:01;5.72;;;4.90;;
57191;SDS011;43052;52.588;13.396;2023-09-07T10:43:32;5.82;;;5.00;;
57191;SDS011;43052;52.588;13.396;2023-09-07T10:45:58;7.55;;;4.68;;
57191;SDS011;43052;52.588;13.396;2023-09-07T10:48:26;6.03;;;4.35;;
57191;SDS011;43052;52.588;13.396;2023-09-07T10:50:53;6.68;;;4.63;;
57191;SDS011;43052;52.588;13.396;2023-09-07T10:53:31;7.22;;;5.40;;
57191;SDS011;43052;52.588;13.396;2023-09-07T10:55:58;7.78;;;4.75;;
57191;SDS011;43052;52.588;13.396;2023-09-07T10:58:27;6.85;;;5.13;;
57191;SDS011;43052;52.588;13.396;2023-09-07T11:00:55;6.93;;;4.70;;
57191;SDS011;43052;52.588;13.396;2023-09-07T11:03:21;6.88;;;5.50;;
57191;SDS011;43052;52.588;13.396;2023-09-07T11:05:46;6.65;;;4.40;;
57191;SDS011;43052;52.588;13.396;2023-09-07T11:08:13;5.00;;;4.15;;
57191;SDS011;43052;52.588;13.396;2023-09-07T11:10:38;5.60;;;4.47;;
57191;SDS011;43052;52.588;13.396;2023-09-07T11:13:04;7.10;;;4.43;;
57191;SDS011;43052;52.588;13.396;2023-09-07T11:15:30;6.30;;;5.00;;
57191;SDS011;43052;52.588;13.396;2023-09-07T11:17:56;5.88;;;4.13;;
57191;SDS011;43052;52.588;13.396;2023-09-07T11:20:26;7.50;;;4.40;;
57191;SDS011;43052;52.588;13.396;2023-09-07T11:22:51;5.95;;;4.68;;
57191;SDS011;43052;52.588;13.396;2023-09-07T11:25:17;7.60;;;4.40;;
57191;SDS011;43052;52.588;13.396;2023-09-07T11:27:42;6.35;;;4.50;;
57191;SDS011;43052;52.588;13.396;2023-09-07T11:30:10;8.95;;;4.80;;
57191;SDS011;43052;52.588;13.396;2023-09-07T11:32:36;5.63;;;4.35;;
57191;SDS011;43052;52.588;13.396;2023-09-07T11:35:02;6.90;;;4.63;;
57191;SDS011;43052;52.588;13.396;2023-09-07T11:37:32;5.90;;;4.82;;
57191;SDS011;43052;52.588;13.396;2023-09-07T11:39:57;6.47;;;4.03;;
57191;SDS011;43052;52.588;13.396;2023-09-07T11:42:22;6.32;;;4.53;;
57191;SDS011;43052;52.588;13.396;2023-09-07T11:44:47;6.38;;;4.80;;
57191;SDS011;43052;52.588;13.396;2023-09-07T11:47:13;5.75;;;4.05;;
57191;SDS011;43052;52.588;13.396;2023-09-07T11:49:38;5.78;;;4.00;;
57191;SDS011;43052;52.588;13.396;2023-09-07T11:52:03;5.18;;;3.95;;
57191;SDS011;43052;52.588;13.396;2023-09-07T11:54:29;6.95;;;4.43;;
57191;SDS011;43052;52.588;13.396;2023-09-07T11:56:54;7.68;;;4.82;;
57191;SDS011;43052;52.588;13.396;2023-09-07T11:59:19;5.97;;;4.70;;
57191;SDS011;43052;52.588;13.396;2023-09-07T12:01:46;6.22;;;4.10;;
57191;SDS011;43052;52.588;13.396;2023-09-07T12:04:11;5.60;;;4.65;;
57191;SDS011;43052;52.588;13.396;2023-09-07T12:06:36;5.55;;;4.30;;
57191;SDS011;43052;52.588;13.396;2023-09-07T12:09:05;6.55;;;4.55;;
57191;SDS011;43052;52.588;13.396;2023-09-07T12:11:31;5.85;;;4.13;;
57191;SDS011;43052;52.588;13.396;2023-09-07T12:13:57;6.35;;;4.75;;
57191;SDS011;43052;52.588;13.396;2023-09-07T12:16:22;6.18;;;4.90;;
57191;SDS011;43052;52.588;13.396;2023-09-07T12:18:47;5.75;;;4.18;;
57191;SDS011;43052;52.588;13.396;2023-09-07T12:21:13;6.30;;;4.43;;
57191;SDS011;43052;52.588;13.396;2023-09-07T12:23:38;7.65;;;4.30;;
57191;SDS011;43052;52.588;13.396;2023-09-07T12:26:06;7.50;;;4.60;;
57191;SDS011;43052;52.588;13.396;2023-09-07T12:28:33;8.75;;;4.53;;
57191;SDS011;43052;52.588;13.396;2023-09-07T12:30:58;6.18;;;4.20;;
57191;SDS011;43052;52.588;13.396;2023-09-07T12:33:24;5.77;;;4.67;;
57191;SDS011;43052;52.588;13.396;2023-09-07T12:35:49;5.95;;;4.40;;
57191;SDS011;43052;52.588;13.396;2023-09-07T12:38:15;5.97;;;4.53;;
57191;SDS011;43052;52.588;13.396;2023-09-07T12:40:43;6.38;;;4.95;;
57191;SDS011;43052;52.588;13.396;2023-09-07T12:43:09;5.63;;;4.50;;
57191;SDS011;43052;52.588;13.396;2023-09-07T12:45:34;6.85;;;4.70;;
57191;SDS011;43052;52.588;13.396;2023-09-07T12:47:59;7.80;;;4.65;;
57191;SDS011;43052;52.588;13.396;2023-09-07T12:50:26;7.32;;;4.78;;
57191;SDS011;43052;52.588;13.396;2023-09-07T12:52:51;6.97;;;4.40;;
57191;SDS011;43052;52.588;13.396;2023-09-07T12:55:18;5.05;;;3.80;;
57191;SDS011;43052;52.588;13.396;2023-09-07T12:57:44;5.88;;;4.60;;
57191;SDS011;43052;52.588;13.396;2023-09-07T13:00:09;5.32;;;4.18;;
57191;SDS011;43052;52.588;13.396;2023-09-07T13:02:35;6.15;;;4.40;;
57191;SDS011;43052;52.588;13.396;2023-09-07T13:05:01;7.15;;;4.78;;
57191;SDS011;43052;52.588;13.396;2023-09-07T13:07:30;5.82;;;4.78;;
57191;SDS011;43052;52.588;13.396;2023-09-07T13:09:56;6.43;;;3.90;;
57191;SDS011;43052;52.588;13.396;2023-09-07T13:12:21;6.63;;;4.18;;
57191;SDS011;43052;52.588;13.396;2023-09-07T13:14:46;4.80;;;4.18;;
57191;SDS011;43052;52.588;13.396;2023-09-07T13:17:12;8.55;;;4.20;;
57191;SDS011;43052;52.588;13.396;2023-09-07T13:19:41;5.85;;;4.00;;
57191;SDS011;43052;52.588;13.396;2023-09-07T13:22:07;6.35;;;4.13;;
57191;SDS011;43052;52.588;13.396;2023-09-07T13:24:33;5.93;;;3.80;;
57191;SDS011;43052;52.588;13.396;2023-09-07T13:26:58;5.88;;;4.45;;
57191;SDS011;43052;52.588;13.396;2023-09-07T13:29:27;6.00;;;4.25;;
57191;SDS011;43052;52.588;13.396;2023-09-07T13:32:00;6.13;;;3.85;;
57191;SDS011;43052;52.588;13.396;2023-09-07T13:34:29;6.43;;;3.80;;
57191;SDS011;43052;52.588;13.396;2023-09-07T13:36:54;6.13;;;4.45;;
57191;SDS011;43052;52.588;13.396;2023-09-07T13:39:28;6.63;;;4.75;;
57191;SDS011;43052;52.588;13.396;2023-09-07T13:41:54;6.97;;;4.03;;
57191;SDS011;43052;52.588;13.396;2023-09-07T13:44:19;7.78;;;4.35;;
57191;SDS011;43052;52.588;13.396;2023-09-07T13:46:44;7.53;;;4.40;;
57191;SDS011;43052;52.588;13.396;2023-09-07T13:49:10;5.03;;;4.20;;
57191;SDS011;43052;52.588;13.396;2023-09-07T13:51:37;6.07;;;4.15;;
57191;SDS011;43052;52.588;13.396;2023-09-07T13:54:04;5.13;;;3.92;;
57191;SDS011;43052;52.588;13.396;2023-09-07T13:56:38;8.65;;;4.10;;
57191;SDS011;43052;52.588;13.396;2023-09-07T13:59:04;9.00;;;5.32;;
57191;SDS011;43052;52.588;13.396;2023-09-07T14:01:30;5.57;;;3.95;;
57191;SDS011;43052;52.588;13.396;2023-09-07T14:03:56;6.25;;;4.38;;
57191;SDS011;43052;52.588;13.396;2023-09-07T14:06:22;7.70;;;4.60;;
57191;SDS011;43052;52.588;13.396;2023-09-07T14:08:48;7.88;;;5.93;;
57191;SDS011;43052;52.588;13.396;2023-09-07T14:11:16;5.93;;;4.15;;
57191;SDS011;43052;52.588;13.396;2023-09-07T14:13:41;6.97;;;4.03;;
57191;SDS011;43052;52.588;13.396;2023-09-07T14:16:07;6.88;;;3.70;;
57191;SDS011;43052;52.588;13.396;2023-09-07T14:18:35;5.03;;;3.90;;
57191;SDS011;43052;52.588;13.396;2023-09-07T14:21:02;6.22;;;4.60;;
57191;SDS011;43052;52.588;13.396;2023-09-07T14:23:28;6.95;;;4.80;;
57191;SDS011;43052;52.588;13.396;2023-09-07T14:25:54;8.38;;;4.10;;